This is the latest recevied weather packets stored in our database for station/object VK5ARG-5. If no packets are shown the sender has not sent any weather packets the latest 10 day(s).
| Time | Temp. | Humidity | Pressure | Rain* | Wind** | Luminosity | Snow |
|---|---|---|---|---|---|---|---|
| 1778291721 | 13.89° C | 83% | - | 0 mm | - | - | - |
| 1778285124 | 12.22° C | 89% | - | 0 mm | - | - | - |
| 1778283321 | 12.22° C | 88% | - | 0 mm | - | - | - |
| 1778277348 | 11.11° C | 92% | - | 0 mm | - | - | - |
| 1778276129 | 11.11° C | 92% | - | 0 mm | - | - | - |
| 1778266521 | 11.11° C | 95% | - | 0 mm | - | - | - |
| 1778264727 | 11.11° C | 95% | - | 0 mm | - | - | - |
| 1778264123 | 11.11° C | 95% | - | 0 mm | - | - | - |
| 1778259328 | 10.56° C | 96% | - | 0 mm | - | - | - |
| 1778258121 | 10.56° C | 96% | - | 0 mm | - | - | - |
| 1778257525 | 10.56° C | 95% | - | 0 mm | - | - | - |
| 1778243124 | 11.11° C | 99% | - | 0 mm | - | - | - |
| 1778237121 | 11.67° C | 99% | - | 0 mm | - | - | - |
| 1778235942 | 11.67° C | 99% | - | 0 mm | - | - | - |
| 1778235327 | 11.67° C | 99% | - | 0 mm | - | - | - |
| 1778234723 | 11.67° C | 99% | - | 0 mm | - | - | - |
| 1778230524 | 11.67° C | 98% | - | 0 mm | - | - | - |
| 1778228146 | 12.22° C | 97% | - | 0 mm | - | - | - |
| 1778225124 | 12.78° C | 94% | - | 0 mm | - | - | - |
| 1778224541 | 12.78° C | 95% | - | 0 mm | - | - | - |
| 1778223322 | 13.33° C | 95% | - | 0 mm | - | - | - |
| 1778222726 | 12.78° C | 98% | - | 0 mm | - | - | - |
| 1778220321 | 11.67° C | 98% | - | 0 mm | - | - | - |
| 1778219122 | 12.22° C | 97% | - | 0 mm | - | - | - |
| 1778214327 | 13.33° C | 89% | - | 0 mm | - | - | - |
* Rain latest hour (hover to see other rain measurements)
** Current wind speed in m/s (hover to see current wind gust speed)